createdAt,value
2023-03-23T00:01:50.359Z,26.63
2023-03-23T00:05:50.483Z,26.65
2023-03-23T00:09:50.635Z,26.63
2023-03-23T00:13:50.681Z,26.63
2023-03-23T00:17:50.770Z,26.62
2023-03-23T00:21:50.911Z,26.61
2023-03-23T00:25:51.052Z,26.61
2023-03-23T00:29:51.170Z,26.61
2023-03-23T00:33:51.191Z,26.61
2023-03-23T00:37:51.242Z,26.60
2023-03-23T00:41:51.334Z,26.61
2023-03-23T00:45:51.528Z,26.60
2023-03-23T00:49:51.685Z,26.58
2023-03-23T00:53:51.804Z,26.58
2023-03-23T00:57:51.967Z,26.58
2023-03-23T01:01:52.020Z,26.59
2023-03-23T01:05:52.040Z,26.59
2023-03-23T01:09:52.174Z,26.59
2023-03-23T01:13:52.213Z,26.58
2023-03-23T01:17:52.340Z,26.57
2023-03-23T01:21:52.308Z,26.57
2023-03-23T01:25:52.341Z,26.58
2023-03-23T01:29:52.325Z,26.57
2023-03-23T01:33:52.340Z,26.56
2023-03-23T01:37:52.415Z,26.57
2023-03-23T01:41:52.473Z,26.55
2023-03-23T01:45:52.464Z,26.55
2023-03-23T01:49:52.467Z,26.55
2023-03-23T01:53:52.498Z,26.55
2023-03-23T01:57:52.528Z,26.52
2023-03-23T02:01:52.486Z,26.52
2023-03-23T02:05:52.466Z,26.51
2023-03-23T02:09:52.551Z,26.49
2023-03-23T02:13:52.554Z,26.49
2023-03-23T02:17:52.542Z,26.48
2023-03-23T02:21:52.495Z,26.48
2023-03-23T02:25:52.521Z,26.49
2023-03-23T02:29:52.488Z,26.48
2023-03-23T02:33:52.558Z,26.47
2023-03-23T02:37:52.616Z,26.48
2023-03-23T02:41:52.704Z,26.47
2023-03-23T02:45:52.693Z,26.47
2023-03-23T02:49:52.757Z,26.47
2023-03-23T02:53:52.766Z,26.42
2023-03-23T02:57:52.748Z,26.44
2023-03-23T03:01:52.816Z,26.43
2023-03-23T03:05:52.846Z,26.44
2023-03-23T03:09:52.867Z,26.42
2023-03-23T03:13:52.918Z,26.39
2023-03-23T03:17:52.943Z,26.41
2023-03-23T03:21:52.949Z,26.40
2023-03-23T03:25:52.930Z,26.40
2023-03-23T03:29:52.927Z,26.39
2023-03-23T03:33:52.919Z,26.37
2023-03-23T03:37:52.874Z,26.38
2023-03-23T03:41:52.877Z,26.39
2023-03-23T03:45:52.841Z,26.35
2023-03-23T03:49:52.831Z,26.37
2023-03-23T03:53:52.806Z,26.35
2023-03-23T03:57:52.809Z,26.35
2023-03-23T04:01:52.777Z,26.37
2023-03-23T04:05:52.784Z,26.30
2023-03-23T04:09:53.715Z,26.31
2023-03-23T04:13:52.696Z,26.26
2023-03-23T04:17:52.644Z,26.26
2023-03-23T04:21:52.621Z,26.26
2023-03-23T04:25:52.606Z,26.24
2023-03-23T04:29:52.587Z,26.23
2023-03-23T04:34:00.516Z,26.24
2023-03-23T04:37:53.469Z,26.25
2023-03-23T04:41:52.462Z,26.24
2023-03-23T04:45:52.400Z,26.26
2023-03-23T04:49:52.373Z,26.25
2023-03-23T04:53:52.381Z,26.24
2023-03-23T04:57:52.315Z,26.26
2023-03-23T05:01:52.272Z,26.23
2023-03-23T05:05:53.235Z,26.24
2023-03-23T05:09:52.196Z,26.22
2023-03-23T05:13:52.484Z,26.16
2023-03-23T05:17:52.134Z,26.15
2023-03-23T05:21:52.506Z,26.12
2023-03-23T05:25:52.487Z,26.11
2023-03-23T05:29:52.500Z,26.04
2023-03-23T05:33:51.996Z,26.03
2023-03-23T05:37:51.963Z,26.00
2023-03-23T05:41:52.013Z,26.04
2023-03-23T05:45:51.883Z,26.01
2023-03-23T05:49:51.829Z,25.98
2023-03-23T05:53:51.795Z,25.99
2023-03-23T05:57:52.014Z,25.94
2023-03-23T06:01:51.761Z,25.90
2023-03-23T06:05:51.815Z,25.83
2023-03-23T06:09:52.017Z,25.76
2023-03-23T06:13:51.930Z,25.71
2023-03-23T06:17:51.887Z,25.70
2023-03-23T06:21:51.864Z,25.73
2023-03-23T06:25:51.828Z,25.75
2023-03-23T06:29:52.798Z,26.21
2023-03-23T06:33:51.812Z,27.19
2023-03-23T06:37:52.017Z,27.40
2023-03-23T06:41:51.724Z,28.00
2023-03-23T06:45:52.035Z,27.56
2023-03-23T06:49:51.643Z,27.33
2023-03-23T06:53:51.608Z,27.35
2023-03-23T06:57:51.558Z,27.46
2023-03-23T07:01:51.565Z,28.03
2023-03-23T07:05:51.538Z,28.01
2023-03-23T07:09:51.461Z,27.73
2023-03-23T07:13:51.431Z,27.76
2023-03-23T07:17:51.545Z,28.00
2023-03-23T07:21:51.534Z,28.08
2023-03-23T07:25:51.517Z,28.05
2023-03-23T07:29:52.556Z,28.45
2023-03-23T07:33:51.802Z,28.36
2023-03-23T07:37:52.078Z,28.14
2023-03-23T07:41:52.878Z,27.83
2023-03-23T07:45:51.852Z,27.80
2023-03-23T07:49:51.814Z,28.03
2023-03-23T07:53:51.765Z,27.87
2023-03-23T07:57:51.732Z,27.84
2023-03-23T08:01:51.735Z,27.99
2023-03-23T08:05:51.679Z,27.89
2023-03-23T08:09:51.663Z,27.72
2023-03-23T08:13:51.729Z,27.84
2023-03-23T08:17:51.761Z,27.87
2023-03-23T08:21:52.075Z,28.06
2023-03-23T08:25:52.003Z,28.62
2023-03-23T08:29:52.073Z,28.49
2023-03-23T08:33:52.057Z,28.44
2023-03-23T08:37:52.047Z,27.75
2023-03-23T08:41:52.083Z,27.78
2023-03-23T08:45:52.204Z,27.94
2023-03-23T08:49:52.356Z,28.17
2023-03-23T08:53:52.608Z,28.39
2023-03-23T08:57:52.580Z,28.47
2023-03-23T09:01:52.529Z,28.53
2023-03-23T09:05:52.501Z,28.39
2023-03-23T09:09:52.490Z,28.42
2023-03-23T09:13:52.406Z,28.56
2023-03-23T09:17:52.367Z,28.40
2023-03-23T09:21:52.588Z,28.85
2023-03-23T09:25:52.302Z,28.69
2023-03-23T09:29:52.283Z,28.51
2023-03-23T09:33:52.605Z,28.21
2023-03-23T09:37:52.595Z,28.25
2023-03-23T09:41:52.312Z,28.54
2023-03-23T09:45:52.553Z,28.09
2023-03-23T09:49:53.110Z,27.93
2023-03-23T09:53:53.089Z,27.89
2023-03-23T09:57:53.635Z,28.18
2023-03-23T10:01:52.895Z,28.08
2023-03-23T10:05:53.006Z,28.03
2023-03-23T10:09:52.945Z,27.88
2023-03-23T10:13:53.108Z,27.54
2023-03-23T10:17:53.044Z,27.23
2023-03-23T10:21:53.107Z,27.03
2023-03-23T10:25:52.960Z,28.43
2023-03-23T10:29:53.015Z,27.95
2023-03-23T10:33:53.111Z,28.38
2023-03-23T10:37:53.082Z,28.42
2023-03-23T10:41:53.109Z,28.60
2023-03-23T10:46:00.598Z,27.81
2023-03-23T10:49:54.128Z,27.92
2023-03-23T10:53:53.168Z,28.25
2023-03-23T10:57:53.286Z,28.23
2023-03-23T11:01:53.470Z,28.48
2023-03-23T11:05:53.629Z,28.53
2023-03-23T11:09:53.669Z,28.69
2023-03-23T11:13:53.806Z,28.47
2023-03-23T11:17:54.043Z,28.55
2023-03-23T11:21:53.963Z,29.16
2023-03-23T11:25:53.950Z,28.82
2023-03-23T11:29:58.439Z,28.54
2023-03-23T11:34:05.573Z,28.40
2023-03-23T11:37:55.134Z,28.33
2023-03-23T11:42:06.887Z,28.22
2023-03-23T11:45:54.765Z,28.17
2023-03-23T11:49:53.755Z,28.01
2023-03-23T11:53:54.161Z,27.96
2023-03-23T11:57:54.136Z,27.92
2023-03-23T12:01:54.173Z,27.87
2023-03-23T12:05:54.193Z,27.75
2023-03-23T12:09:54.683Z,27.66
2023-03-23T12:13:56.828Z,28.48
2023-03-23T12:17:54.646Z,28.07
2023-03-23T12:21:54.665Z,28.65
2023-03-23T12:25:54.189Z,28.34
2023-03-23T12:29:54.155Z,28.51
2023-03-23T12:33:54.110Z,28.79
2023-03-23T12:37:54.083Z,28.98
2023-03-23T12:41:54.033Z,28.68
2023-03-23T12:45:54.019Z,28.60
2023-03-23T12:49:54.067Z,28.54
2023-03-23T12:53:54.145Z,28.50
2023-03-23T12:57:54.182Z,28.39
2023-03-23T13:01:54.281Z,28.31
2023-03-23T13:05:54.679Z,28.27
2023-03-23T13:09:54.441Z,28.27
2023-03-23T13:13:55.237Z,28.20
2023-03-23T13:17:54.625Z,28.14
2023-03-23T13:21:54.783Z,28.17
2023-03-23T13:25:54.847Z,28.19
2023-03-23T13:29:54.960Z,28.11
2023-03-23T13:33:55.076Z,28.02
2023-03-23T13:37:55.169Z,27.97
2023-03-23T13:41:55.299Z,27.88
2023-03-23T13:45:55.393Z,27.85
2023-03-23T13:49:55.522Z,27.79
2023-03-23T13:53:55.650Z,27.93
2023-03-23T13:57:56.215Z,27.87
2023-03-23T14:01:56.220Z,27.78
2023-03-23T14:05:56.021Z,27.79
2023-03-23T14:09:56.218Z,27.78
2023-03-23T14:13:56.284Z,27.71
2023-03-23T14:17:56.412Z,27.59
2023-03-23T14:21:56.622Z,27.60
2023-03-23T14:25:56.687Z,27.62
2023-03-23T14:29:56.840Z,27.48
2023-03-23T14:33:56.935Z,27.49
2023-03-23T14:37:57.217Z,27.46
2023-03-23T14:41:57.259Z,27.39
2023-03-23T14:45:57.381Z,27.33
2023-03-23T14:49:57.731Z,27.22
2023-03-23T14:53:57.726Z,27.20
2023-03-23T14:57:58.236Z,27.19
2023-03-23T15:01:57.894Z,27.15
2023-03-23T15:05:58.005Z,27.20
2023-03-23T15:09:58.136Z,27.10
2023-03-23T15:13:58.305Z,27.16
2023-03-23T15:17:58.474Z,27.14
2023-03-23T15:21:58.632Z,27.13
2023-03-23T15:25:58.829Z,27.09
2023-03-23T15:29:59.008Z,27.09
2023-03-23T15:33:59.130Z,27.11
2023-03-23T15:37:59.317Z,27.08
2023-03-23T15:41:59.285Z,27.06
2023-03-23T15:45:59.268Z,27.13
2023-03-23T15:49:59.202Z,27.15
2023-03-23T15:54:02.867Z,27.16
2023-03-23T15:58:00.206Z,27.20
2023-03-23T16:01:59.125Z,27.19
2023-03-23T16:05:59.122Z,27.22
2023-03-23T16:09:59.364Z,27.20
2023-03-23T16:13:59.576Z,27.23
2023-03-23T16:17:59.836Z,27.26
2023-03-23T16:22:00.003Z,27.28
2023-03-23T16:26:00.274Z,27.33
2023-03-23T16:30:04.276Z,27.31
2023-03-23T16:34:00.144Z,27.34
2023-03-23T16:38:08.267Z,27.45
2023-03-23T16:42:01.391Z,27.44
2023-03-23T16:46:00.078Z,27.47
2023-03-23T16:50:00.230Z,27.50
2023-03-23T16:54:00.196Z,27.52
2023-03-23T16:58:09.364Z,27.52
2023-03-23T17:02:01.311Z,27.57
2023-03-23T17:06:00.112Z,27.58
2023-03-23T17:10:00.045Z,27.57
2023-03-23T17:13:59.999Z,27.69
2023-03-23T17:18:00.139Z,27.71
2023-03-23T17:21:59.947Z,27.69
2023-03-23T17:25:59.943Z,27.82
2023-03-23T17:29:59.876Z,27.81
2023-03-23T17:33:59.843Z,27.77
2023-03-23T17:37:59.813Z,27.79
2023-03-23T17:41:59.784Z,27.76
2023-03-23T17:45:59.965Z,27.79
2023-03-23T17:49:59.911Z,27.75
2023-03-23T17:53:59.854Z,27.73
2023-03-23T17:57:59.817Z,27.69
2023-03-23T18:01:59.815Z,27.69
2023-03-23T18:05:59.735Z,27.67
2023-03-23T18:09:59.807Z,27.66
2023-03-23T18:13:59.685Z,27.66
2023-03-23T18:17:59.691Z,27.66
2023-03-23T18:21:59.652Z,27.65
2023-03-23T18:25:59.557Z,27.65
2023-03-23T18:29:59.523Z,27.65
2023-03-23T18:33:59.592Z,27.61
2023-03-23T18:37:59.716Z,27.62
2023-03-23T18:41:59.831Z,27.68
2023-03-23T18:46:00.103Z,27.72
2023-03-23T18:50:00.077Z,27.77
2023-03-23T18:54:00.044Z,27.82
2023-03-23T18:58:00.133Z,27.85
2023-03-23T19:02:00.138Z,27.94
2023-03-23T19:06:00.114Z,27.95
2023-03-23T19:10:00.051Z,27.97
2023-03-23T19:14:02.990Z,27.97
2023-03-23T19:18:00.003Z,28.00
2023-03-23T19:22:00.190Z,28.01
2023-03-23T19:26:00.151Z,28.07
2023-03-23T19:29:59.881Z,28.14
2023-03-23T19:33:59.868Z,28.28
2023-03-23T19:37:59.799Z,28.29
2023-03-23T19:41:59.764Z,28.31
2023-03-23T19:46:00.229Z,28.34
2023-03-23T19:49:59.729Z,28.39
2023-03-23T19:53:59.672Z,28.43
2023-03-23T19:58:00.375Z,28.40
2023-03-23T20:01:59.635Z,28.40
2023-03-23T20:05:59.545Z,28.37
2023-03-23T20:09:59.516Z,28.41
2023-03-23T20:13:59.495Z,28.41
2023-03-23T20:17:59.495Z,28.47
2023-03-23T20:21:59.451Z,28.47
2023-03-23T20:25:59.787Z,28.51
2023-03-23T20:29:59.341Z,28.55
2023-03-23T20:34:00.553Z,28.57
2023-03-23T20:37:59.309Z,28.55
2023-03-23T20:41:59.230Z,28.53
2023-03-23T20:45:59.217Z,28.55
2023-03-23T20:49:59.174Z,28.59
2023-03-23T20:53:59.217Z,28.58
2023-03-23T20:57:59.272Z,28.58
2023-03-23T21:01:59.250Z,28.60
2023-03-23T21:05:59.265Z,28.60
2023-03-23T21:09:59.332Z,28.59
2023-03-23T21:13:59.361Z,28.61
2023-03-23T21:17:59.450Z,28.60
2023-03-23T21:21:59.397Z,28.61
2023-03-23T21:25:59.391Z,28.62
2023-03-23T21:29:59.477Z,28.65
2023-03-23T21:33:59.464Z,28.70
2023-03-23T21:37:59.495Z,28.67
2023-03-23T21:41:59.723Z,28.68
2023-03-23T21:45:59.560Z,28.64
2023-03-23T21:49:59.581Z,28.65
2023-03-23T21:53:59.629Z,28.65
2023-03-23T21:57:59.622Z,28.64
2023-03-23T22:01:59.743Z,28.69
2023-03-23T22:05:59.696Z,28.65
2023-03-23T22:09:59.727Z,28.64
2023-03-23T22:13:59.741Z,28.65
2023-03-23T22:17:59.830Z,28.63
2023-03-23T22:21:59.780Z,28.61
2023-03-23T22:25:59.819Z,28.61
2023-03-23T22:29:59.841Z,28.63
2023-03-23T22:33:59.876Z,28.62
2023-03-23T22:37:59.923Z,28.64
2023-03-23T22:41:59.963Z,28.65
2023-03-23T22:46:00.000Z,28.74
2023-03-23T22:50:00.053Z,28.72
2023-03-23T22:54:00.094Z,28.73
2023-03-23T22:58:00.102Z,28.77
2023-03-23T23:02:00.135Z,28.79
2023-03-23T23:06:00.158Z,28.77
2023-03-23T23:10:00.212Z,28.76
2023-03-23T23:14:00.223Z,28.78
2023-03-23T23:18:00.368Z,28.76
2023-03-23T23:22:12.613Z,28.83
2023-03-23T23:26:01.270Z,28.84
2023-03-23T23:30:00.245Z,28.85
2023-03-23T23:34:00.239Z,28.83
2023-03-23T23:38:00.195Z,28.84
2023-03-23T23:42:00.141Z,28.84
2023-03-23T23:46:00.177Z,28.82
2023-03-23T23:50:00.126Z,28.87
2023-03-23T23:54:00.037Z,28.85
2023-03-23T23:58:00.089Z,28.90
